sensor_id;sensor_type;location;lat;lon;timestamp;temperature;humidity
19258;DHT22;9763;48.780;9.212;2023-05-19T00:00:39;16.60;42.80
19258;DHT22;9763;48.780;9.212;2023-05-19T00:04:11;16.60;42.90
19258;DHT22;9763;48.780;9.212;2023-05-19T00:07:37;16.50;42.90
19258;DHT22;9763;48.780;9.212;2023-05-19T00:11:02;16.50;42.90
19258;DHT22;9763;48.780;9.212;2023-05-19T00:14:28;16.40;43.00
19258;DHT22;9763;48.780;9.212;2023-05-19T00:17:55;16.40;43.10
19258;DHT22;9763;48.780;9.212;2023-05-19T00:21:20;16.30;43.10
19258;DHT22;9763;48.780;9.212;2023-05-19T00:24:46;16.30;43.40
19258;DHT22;9763;48.780;9.212;2023-05-19T00:28:10;16.20;43.20
19258;DHT22;9763;48.780;9.212;2023-05-19T00:31:35;16.20;43.40
19258;DHT22;9763;48.780;9.212;2023-05-19T00:35:00;16.20;43.50
19258;DHT22;9763;48.780;9.212;2023-05-19T00:38:24;16.20;43.60
19258;DHT22;9763;48.780;9.212;2023-05-19T00:41:48;16.10;43.60
19258;DHT22;9763;48.780;9.212;2023-05-19T00:45:11;16.20;43.80
19258;DHT22;9763;48.780;9.212;2023-05-19T00:48:35;16.20;43.80
19258;DHT22;9763;48.780;9.212;2023-05-19T00:52:00;16.20;43.90
19258;DHT22;9763;48.780;9.212;2023-05-19T00:55:26;16.20;44.00
19258;DHT22;9763;48.780;9.212;2023-05-19T00:58:53;16.20;44.10
19258;DHT22;9763;48.780;9.212;2023-05-19T01:02:17;16.20;44.00
19258;DHT22;9763;48.780;9.212;2023-05-19T01:05:41;16.10;44.70
19258;DHT22;9763;48.780;9.212;2023-05-19T01:09:07;16.10;44.20
19258;DHT22;9763;48.780;9.212;2023-05-19T01:12:31;16.10;44.10
19258;DHT22;9763;48.780;9.212;2023-05-19T01:16:01;16.10;44.10
19258;DHT22;9763;48.780;9.212;2023-05-19T01:19:41;16.10;44.10
19258;DHT22;9763;48.780;9.212;2023-05-19T01:23:25;16.10;44.50
19258;DHT22;9763;48.780;9.212;2023-05-19T01:27:13;16.10;44.50
19258;DHT22;9763;48.780;9.212;2023-05-19T01:30:54;16.00;44.60
19258;DHT22;9763;48.780;9.212;2023-05-19T01:34:21;16.00;44.40
19258;DHT22;9763;48.780;9.212;2023-05-19T01:37:46;16.00;44.50
19258;DHT22;9763;48.780;9.212;2023-05-19T01:41:12;16.00;44.40
19258;DHT22;9763;48.780;9.212;2023-05-19T01:44:37;16.00;44.50
19258;DHT22;9763;48.780;9.212;2023-05-19T01:48:03;16.00;44.50
19258;DHT22;9763;48.780;9.212;2023-05-19T01:51:33;16.00;44.60
19258;DHT22;9763;48.780;9.212;2023-05-19T01:54:56;16.00;44.60
19258;DHT22;9763;48.780;9.212;2023-05-19T01:58:26;16.00;44.60
19258;DHT22;9763;48.780;9.212;2023-05-19T02:01:57;16.00;44.80
19258;DHT22;9763;48.780;9.212;2023-05-19T02:05:32;16.00;44.90
19258;DHT22;9763;48.780;9.212;2023-05-19T02:09:03;15.90;45.30
19258;DHT22;9763;48.780;9.212;2023-05-19T02:12:35;15.80;44.90
19258;DHT22;9763;48.780;9.212;2023-05-19T02:16:04;15.80;44.90
19258;DHT22;9763;48.780;9.212;2023-05-19T02:19:31;15.80;45.10
19258;DHT22;9763;48.780;9.212;2023-05-19T02:22:57;15.80;45.20
19258;DHT22;9763;48.780;9.212;2023-05-19T02:26:21;15.80;45.20
19258;DHT22;9763;48.780;9.212;2023-05-19T02:29:44;15.80;45.10
19258;DHT22;9763;48.780;9.212;2023-05-19T02:33:08;15.80;45.10
19258;DHT22;9763;48.780;9.212;2023-05-19T02:36:33;15.80;45.10
19258;DHT22;9763;48.780;9.212;2023-05-19T02:40:00;15.80;45.20
19258;DHT22;9763;48.780;9.212;2023-05-19T02:43:24;15.80;45.20
19258;DHT22;9763;48.780;9.212;2023-05-19T02:46:48;15.90;45.10
19258;DHT22;9763;48.780;9.212;2023-05-19T02:50:12;15.80;45.10
19258;DHT22;9763;48.780;9.212;2023-05-19T02:53:36;15.80;45.10
19258;DHT22;9763;48.780;9.212;2023-05-19T02:57:01;15.70;45.10
19258;DHT22;9763;48.780;9.212;2023-05-19T03:00:24;15.60;45.30
19258;DHT22;9763;48.780;9.212;2023-05-19T03:03:48;15.60;45.40
19258;DHT22;9763;48.780;9.212;2023-05-19T03:07:12;15.50;45.40
19258;DHT22;9763;48.780;9.212;2023-05-19T03:10:36;15.60;46.20
19258;DHT22;9763;48.780;9.212;2023-05-19T03:14:01;15.60;45.60
19258;DHT22;9763;48.780;9.212;2023-05-19T03:17:25;15.60;45.70
19258;DHT22;9763;48.780;9.212;2023-05-19T03:20:49;15.60;46.20
19258;DHT22;9763;48.780;9.212;2023-05-19T03:24:14;15.60;45.70
19258;DHT22;9763;48.780;9.212;2023-05-19T03:27:38;15.60;45.70
19258;DHT22;9763;48.780;9.212;2023-05-19T03:31:03;15.60;45.70
19258;DHT22;9763;48.780;9.212;2023-05-19T03:34:32;15.60;45.80
19258;DHT22;9763;48.780;9.212;2023-05-19T03:37:56;15.60;45.80
19258;DHT22;9763;48.780;9.212;2023-05-19T03:41:20;15.60;45.80
19258;DHT22;9763;48.780;9.212;2023-05-19T03:44:44;15.50;45.80
19258;DHT22;9763;48.780;9.212;2023-05-19T03:48:09;15.50;45.90
19258;DHT22;9763;48.780;9.212;2023-05-19T03:51:52;15.50;45.90
19258;DHT22;9763;48.780;9.212;2023-05-19T03:55:31;15.40;45.90
19258;DHT22;9763;48.780;9.212;2023-05-19T03:58:55;15.30;46.00
19258;DHT22;9763;48.780;9.212;2023-05-19T04:02:19;15.30;46.00
19258;DHT22;9763;48.780;9.212;2023-05-19T04:05:44;15.30;46.20
19258;DHT22;9763;48.780;9.212;2023-05-19T04:09:11;15.30;46.30
19258;DHT22;9763;48.780;9.212;2023-05-19T04:12:36;15.20;46.40
19258;DHT22;9763;48.780;9.212;2023-05-19T04:15:59;15.20;46.40
19258;DHT22;9763;48.780;9.212;2023-05-19T04:19:23;15.10;46.50
19258;DHT22;9763;48.780;9.212;2023-05-19T04:22:51;15.10;46.60
19258;DHT22;9763;48.780;9.212;2023-05-19T04:26:14;15.20;46.70
19258;DHT22;9763;48.780;9.212;2023-05-19T04:29:39;15.20;46.80
19258;DHT22;9763;48.780;9.212;2023-05-19T04:33:02;15.20;46.90
19258;DHT22;9763;48.780;9.212;2023-05-19T04:36:26;15.20;47.00
19258;DHT22;9763;48.780;9.212;2023-05-19T04:39:51;15.30;47.00
19258;DHT22;9763;48.780;9.212;2023-05-19T04:43:18;15.30;47.10
19258;DHT22;9763;48.780;9.212;2023-05-19T04:46:44;15.40;47.10
19258;DHT22;9763;48.780;9.212;2023-05-19T04:50:09;15.60;47.30
19258;DHT22;9763;48.780;9.212;2023-05-19T04:53:33;15.60;47.20
19258;DHT22;9763;48.780;9.212;2023-05-19T04:57:01;15.70;47.10
19258;DHT22;9763;48.780;9.212;2023-05-19T05:00:27;15.80;47.30
19258;DHT22;9763;48.780;9.212;2023-05-19T05:03:57;15.90;47.50
19258;DHT22;9763;48.780;9.212;2023-05-19T05:07:23;16.00;47.70
19258;DHT22;9763;48.780;9.212;2023-05-19T05:10:49;16.20;47.80
19258;DHT22;9763;48.780;9.212;2023-05-19T05:14:15;16.40;47.90
19258;DHT22;9763;48.780;9.212;2023-05-19T05:17:41;16.50;47.90
19258;DHT22;9763;48.780;9.212;2023-05-19T05:21:05;16.70;48.10
19258;DHT22;9763;48.780;9.212;2023-05-19T05:24:30;16.90;48.40
19258;DHT22;9763;48.780;9.212;2023-05-19T05:27:57;17.20;48.60
19258;DHT22;9763;48.780;9.212;2023-05-19T05:31:28;17.40;48.40
19258;DHT22;9763;48.780;9.212;2023-05-19T05:34:52;17.70;48.50
19258;DHT22;9763;48.780;9.212;2023-05-19T05:38:16;18.00;49.00
19258;DHT22;9763;48.780;9.212;2023-05-19T05:41:40;18.40;49.70
19258;DHT22;9763;48.780;9.212;2023-05-19T05:45:06;18.90;49.90
19258;DHT22;9763;48.780;9.212;2023-05-19T05:48:33;19.40;49.90
19258;DHT22;9763;48.780;9.212;2023-05-19T05:51:59;19.80;49.60
19258;DHT22;9763;48.780;9.212;2023-05-19T05:55:35;20.30;49.20
19258;DHT22;9763;48.780;9.212;2023-05-19T05:59:01;20.60;48.70
19258;DHT22;9763;48.780;9.212;2023-05-19T06:02:25;21.10;48.70
19258;DHT22;9763;48.780;9.212;2023-05-19T06:05:53;21.30;49.10
19258;DHT22;9763;48.780;9.212;2023-05-19T06:09:17;21.70;49.30
19258;DHT22;9763;48.780;9.212;2023-05-19T06:12:41;22.20;49.90
19258;DHT22;9763;48.780;9.212;2023-05-19T06:16:06;22.70;50.10
19258;DHT22;9763;48.780;9.212;2023-05-19T06:19:34;23.40;50.00
19258;DHT22;9763;48.780;9.212;2023-05-19T06:22:59;23.90;49.90
19258;DHT22;9763;48.780;9.212;2023-05-19T06:26:24;24.50;49.60
19258;DHT22;9763;48.780;9.212;2023-05-19T06:29:48;25.00;49.50
19258;DHT22;9763;48.780;9.212;2023-05-19T06:33:12;25.50;48.90
19258;DHT22;9763;48.780;9.212;2023-05-19T06:36:36;26.10;48.50
19258;DHT22;9763;48.780;9.212;2023-05-19T06:40:04;26.50;47.60
19258;DHT22;9763;48.780;9.212;2023-05-19T06:43:30;26.90;46.50
19258;DHT22;9763;48.780;9.212;2023-05-19T06:46:58;27.10;45.30
19258;DHT22;9763;48.780;9.212;2023-05-19T06:50:22;27.20;44.10
19258;DHT22;9763;48.780;9.212;2023-05-19T06:53:46;27.00;43.20
19258;DHT22;9763;48.780;9.212;2023-05-19T06:57:11;26.70;42.80
19258;DHT22;9763;48.780;9.212;2023-05-19T07:00:35;26.50;42.80
19258;DHT22;9763;48.780;9.212;2023-05-19T07:04:00;26.40;43.40
19258;DHT22;9763;48.780;9.212;2023-05-19T07:07:24;26.40;43.80
19258;DHT22;9763;48.780;9.212;2023-05-19T07:10:50;26.40;43.20
19258;DHT22;9763;48.780;9.212;2023-05-19T07:14:15;26.30;41.80
19258;DHT22;9763;48.780;9.212;2023-05-19T07:17:39;25.90;40.70
19258;DHT22;9763;48.780;9.212;2023-05-19T07:21:03;25.40;40.40
19258;DHT22;9763;48.780;9.212;2023-05-19T07:24:28;24.80;40.30
19258;DHT22;9763;48.780;9.212;2023-05-19T07:27:52;24.30;40.20
19258;DHT22;9763;48.780;9.212;2023-05-19T07:31:17;23.80;40.20
19258;DHT22;9763;48.780;9.212;2023-05-19T07:34:41;23.30;40.20
19258;DHT22;9763;48.780;9.212;2023-05-19T07:38:05;22.80;40.20
19258;DHT22;9763;48.780;9.212;2023-05-19T07:41:29;22.30;40.40
19258;DHT22;9763;48.780;9.212;2023-05-19T07:44:55;22.00;40.70
19258;DHT22;9763;48.780;9.212;2023-05-19T07:48:20;21.60;40.90
19258;DHT22;9763;48.780;9.212;2023-05-19T07:51:45;21.30;41.10
19258;DHT22;9763;48.780;9.212;2023-05-19T07:55:09;21.20;41.60
19258;DHT22;9763;48.780;9.212;2023-05-19T07:58:33;20.90;41.70
19258;DHT22;9763;48.780;9.212;2023-05-19T08:01:56;20.80;42.00
19258;DHT22;9763;48.780;9.212;2023-05-19T08:05:22;20.60;42.00
19258;DHT22;9763;48.780;9.212;2023-05-19T08:08:46;20.40;42.00
19258;DHT22;9763;48.780;9.212;2023-05-19T08:12:10;20.30;42.10
19258;DHT22;9763;48.780;9.212;2023-05-19T08:15:33;20.20;42.20
19258;DHT22;9763;48.780;9.212;2023-05-19T08:18:57;20.10;42.30
19258;DHT22;9763;48.780;9.212;2023-05-19T08:22:25;20.00;42.40
19258;DHT22;9763;48.780;9.212;2023-05-19T08:25:49;19.90;42.40
19258;DHT22;9763;48.780;9.212;2023-05-19T08:29:13;19.80;42.30
19258;DHT22;9763;48.780;9.212;2023-05-19T08:32:36;19.70;42.50
19258;DHT22;9763;48.780;9.212;2023-05-19T08:36:00;19.70;42.70
19258;DHT22;9763;48.780;9.212;2023-05-19T08:39:25;19.70;42.70
19258;DHT22;9763;48.780;9.212;2023-05-19T08:42:49;19.60;42.70
19258;DHT22;9763;48.780;9.212;2023-05-19T08:46:13;19.50;42.90
19258;DHT22;9763;48.780;9.212;2023-05-19T08:49:43;19.50;43.10
19258;DHT22;9763;48.780;9.212;2023-05-19T08:53:12;19.50;43.30
19258;DHT22;9763;48.780;9.212;2023-05-19T08:56:56;19.50;43.40
19258;DHT22;9763;48.780;9.212;2023-05-19T09:00:21;19.50;43.50
19258;DHT22;9763;48.780;9.212;2023-05-19T09:03:46;19.50;43.60
19258;DHT22;9763;48.780;9.212;2023-05-19T09:07:12;19.60;43.60
19258;DHT22;9763;48.780;9.212;2023-05-19T09:10:37;19.50;43.50
19258;DHT22;9763;48.780;9.212;2023-05-19T09:14:02;19.50;43.50
19258;DHT22;9763;48.780;9.212;2023-05-19T09:17:26;19.50;43.70
19258;DHT22;9763;48.780;9.212;2023-05-19T09:20:49;19.50;43.80
19258;DHT22;9763;48.780;9.212;2023-05-19T09:24:13;19.60;43.90
19258;DHT22;9763;48.780;9.212;2023-05-19T09:27:37;19.60;43.90
19258;DHT22;9763;48.780;9.212;2023-05-19T09:31:04;19.80;44.10
19258;DHT22;9763;48.780;9.212;2023-05-19T09:34:28;19.70;44.10
19258;DHT22;9763;48.780;9.212;2023-05-19T09:37:52;19.80;44.00
19258;DHT22;9763;48.780;9.212;2023-05-19T09:41:17;19.80;44.00
19258;DHT22;9763;48.780;9.212;2023-05-19T09:44:41;19.80;44.00
19258;DHT22;9763;48.780;9.212;2023-05-19T09:48:07;19.80;44.10
19258;DHT22;9763;48.780;9.212;2023-05-19T09:51:31;19.80;44.00
19258;DHT22;9763;48.780;9.212;2023-05-19T09:54:55;19.90;44.30
19258;DHT22;9763;48.780;9.212;2023-05-19T09:58:19;20.00;44.40
19258;DHT22;9763;48.780;9.212;2023-05-19T10:01:44;20.00;44.40
19258;DHT22;9763;48.780;9.212;2023-05-19T10:05:12;20.10;44.50
19258;DHT22;9763;48.780;9.212;2023-05-19T10:08:39;20.20;44.50
19258;DHT22;9763;48.780;9.212;2023-05-19T10:12:04;20.30;44.40
19258;DHT22;9763;48.780;9.212;2023-05-19T10:15:30;20.30;44.20
19258;DHT22;9763;48.780;9.212;2023-05-19T10:19:08;20.40;44.20
19258;DHT22;9763;48.780;9.212;2023-05-19T10:22:34;20.30;44.10
19258;DHT22;9763;48.780;9.212;2023-05-19T10:25:59;20.30;44.00
19258;DHT22;9763;48.780;9.212;2023-05-19T10:29:27;20.30;44.10
19258;DHT22;9763;48.780;9.212;2023-05-19T10:32:54;20.30;44.20
19258;DHT22;9763;48.780;9.212;2023-05-19T10:36:36;20.30;44.10
19258;DHT22;9763;48.780;9.212;2023-05-19T10:40:11;20.30;44.00
19258;DHT22;9763;48.780;9.212;2023-05-19T10:43:48;20.20;44.00
19258;DHT22;9763;48.780;9.212;2023-05-19T10:47:22;20.30;44.20
19258;DHT22;9763;48.780;9.212;2023-05-19T10:50:46;20.20;44.10
19258;DHT22;9763;48.780;9.212;2023-05-19T10:54:10;20.30;44.00
19258;DHT22;9763;48.780;9.212;2023-05-19T10:57:52;20.20;43.70
19258;DHT22;9763;48.780;9.212;2023-05-19T11:01:18;20.10;43.60
19258;DHT22;9763;48.780;9.212;2023-05-19T11:04:47;20.00;43.60
19258;DHT22;9763;48.780;9.212;2023-05-19T11:08:13;19.90;43.80
19258;DHT22;9763;48.780;9.212;2023-05-19T11:11:46;19.80;44.00
19258;DHT22;9763;48.780;9.212;2023-05-19T11:15:14;19.80;44.20
19258;DHT22;9763;48.780;9.212;2023-05-19T11:18:38;19.90;44.30
19258;DHT22;9763;48.780;9.212;2023-05-19T11:22:09;19.80;44.20
19258;DHT22;9763;48.780;9.212;2023-05-19T11:25:41;19.80;44.30
19258;DHT22;9763;48.780;9.212;2023-05-19T11:29:06;19.80;44.20
19258;DHT22;9763;48.780;9.212;2023-05-19T11:32:33;19.80;44.10
19258;DHT22;9763;48.780;9.212;2023-05-19T11:36:00;19.80;44.10
19258;DHT22;9763;48.780;9.212;2023-05-19T11:39:25;19.80;44.00
19258;DHT22;9763;48.780;9.212;2023-05-19T11:42:49;19.70;44.10
19258;DHT22;9763;48.780;9.212;2023-05-19T11:46:13;19.70;44.20
19258;DHT22;9763;48.780;9.212;2023-05-19T11:49:42;19.70;44.10
19258;DHT22;9763;48.780;9.212;2023-05-19T11:53:07;19.60;44.20
19258;DHT22;9763;48.780;9.212;2023-05-19T11:56:33;19.60;44.20
19258;DHT22;9763;48.780;9.212;2023-05-19T12:00:01;19.60;44.20
19258;DHT22;9763;48.780;9.212;2023-05-19T12:03:30;19.60;44.30
19258;DHT22;9763;48.780;9.212;2023-05-19T12:06:55;19.60;44.40
19258;DHT22;9763;48.780;9.212;2023-05-19T12:10:21;19.60;44.40
19258;DHT22;9763;48.780;9.212;2023-05-19T12:13:46;19.60;44.40
19258;DHT22;9763;48.780;9.212;2023-05-19T12:17:13;19.60;44.40
19258;DHT22;9763;48.780;9.212;2023-05-19T12:20:40;19.60;44.30
19258;DHT22;9763;48.780;9.212;2023-05-19T12:24:05;19.60;44.30
19258;DHT22;9763;48.780;9.212;2023-05-19T12:27:29;19.60;44.40
19258;DHT22;9763;48.780;9.212;2023-05-19T12:30:58;19.60;44.40
19258;DHT22;9763;48.780;9.212;2023-05-19T12:34:24;19.70;44.60
19258;DHT22;9763;48.780;9.212;2023-05-19T12:37:48;19.70;45.10
19258;DHT22;9763;48.780;9.212;2023-05-19T12:41:13;19.70;44.60
19258;DHT22;9763;48.780;9.212;2023-05-19T12:44:38;19.70;44.90
19258;DHT22;9763;48.780;9.212;2023-05-19T12:48:11;19.70;45.70
19258;DHT22;9763;48.780;9.212;2023-05-19T12:51:37;19.80;45.80
19258;DHT22;9763;48.780;9.212;2023-05-19T12:55:02;19.80;45.10
19258;DHT22;9763;48.780;9.212;2023-05-19T12:58:32;20.00;45.20
19258;DHT22;9763;48.780;9.212;2023-05-19T13:01:56;20.10;44.90
19258;DHT22;9763;48.780;9.212;2023-05-19T13:05:21;20.00;44.70
19258;DHT22;9763;48.780;9.212;2023-05-19T13:08:45;20.00;44.60
19258;DHT22;9763;48.780;9.212;2023-05-19T13:12:09;19.90;44.60
19258;DHT22;9763;48.780;9.212;2023-05-19T13:15:36;19.90;44.70
19258;DHT22;9763;48.780;9.212;2023-05-19T13:19:02;19.90;44.80
19258;DHT22;9763;48.780;9.212;2023-05-19T13:22:27;19.90;44.90
19258;DHT22;9763;48.780;9.212;2023-05-19T13:25:51;19.90;45.00
19258;DHT22;9763;48.780;9.212;2023-05-19T13:29:15;19.90;45.00
19258;DHT22;9763;48.780;9.212;2023-05-19T13:32:40;19.90;44.90
19258;DHT22;9763;48.780;9.212;2023-05-19T13:36:04;20.00;45.00
19258;DHT22;9763;48.780;9.212;2023-05-19T13:39:28;20.00;44.90
19258;DHT22;9763;48.780;9.212;2023-05-19T13:42:52;19.90;44.80
19258;DHT22;9763;48.780;9.212;2023-05-19T13:46:16;19.90;44.80
19258;DHT22;9763;48.780;9.212;2023-05-19T13:49:49;19.90;44.80
19258;DHT22;9763;48.780;9.212;2023-05-19T13:53:13;19.90;44.90
19258;DHT22;9763;48.780;9.212;2023-05-19T13:56:36;19.80;44.70
19258;DHT22;9763;48.780;9.212;2023-05-19T14:00:01;19.80;44.90
19258;DHT22;9763;48.780;9.212;2023-05-19T14:03:36;19.90;45.00
19258;DHT22;9763;48.780;9.212;2023-05-19T14:07:01;19.90;45.00
19258;DHT22;9763;48.780;9.212;2023-05-19T14:10:24;19.90;45.10
19258;DHT22;9763;48.780;9.212;2023-05-19T14:13:49;20.00;45.30
19258;DHT22;9763;48.780;9.212;2023-05-19T14:17:14;20.30;45.60
19258;DHT22;9763;48.780;9.212;2023-05-19T14:20:37;20.10;45.40
19258;DHT22;9763;48.780;9.212;2023-05-19T14:24:03;20.20;45.30
19258;DHT22;9763;48.780;9.212;2023-05-19T14:27:27;20.30;45.30
19258;DHT22;9763;48.780;9.212;2023-05-19T14:30:50;20.30;45.10
19258;DHT22;9763;48.780;9.212;2023-05-19T14:34:14;20.60;45.40
19258;DHT22;9763;48.780;9.212;2023-05-19T14:37:41;20.30;45.00
19258;DHT22;9763;48.780;9.212;2023-05-19T14:41:06;20.40;45.10
19258;DHT22;9763;48.780;9.212;2023-05-19T14:44:30;20.40;45.10
19258;DHT22;9763;48.780;9.212;2023-05-19T14:47:54;20.40;45.10
19258;DHT22;9763;48.780;9.212;2023-05-19T14:51:18;20.40;44.90
19258;DHT22;9763;48.780;9.212;2023-05-19T14:54:42;20.40;45.00
19258;DHT22;9763;48.780;9.212;2023-05-19T14:58:07;20.40;44.80
19258;DHT22;9763;48.780;9.212;2023-05-19T15:01:48;20.40;44.70
19258;DHT22;9763;48.780;9.212;2023-05-19T15:05:12;20.30;44.60
19258;DHT22;9763;48.780;9.212;2023-05-19T15:08:35;20.30;44.60
19258;DHT22;9763;48.780;9.212;2023-05-19T15:12:00;20.20;44.60
19258;DHT22;9763;48.780;9.212;2023-05-19T15:15:25;20.10;45.20
19258;DHT22;9763;48.780;9.212;2023-05-19T15:18:48;20.20;44.80
19258;DHT22;9763;48.780;9.212;2023-05-19T15:22:13;20.00;44.80
19258;DHT22;9763;48.780;9.212;2023-05-19T15:25:36;20.00;44.90
19258;DHT22;9763;48.780;9.212;2023-05-19T15:29:00;20.00;45.00
19258;DHT22;9763;48.780;9.212;2023-05-19T15:32:25;20.00;45.00
19258;DHT22;9763;48.780;9.212;2023-05-19T15:35:48;20.00;45.00
19258;DHT22;9763;48.780;9.212;2023-05-19T15:39:13;20.00;45.00
19258;DHT22;9763;48.780;9.212;2023-05-19T15:42:36;20.00;45.00
19258;DHT22;9763;48.780;9.212;2023-05-19T15:46:00;20.10;45.00
19258;DHT22;9763;48.780;9.212;2023-05-19T15:49:28;20.00;45.00
19258;DHT22;9763;48.780;9.212;2023-05-19T15:52:51;20.00;45.00
19258;DHT22;9763;48.780;9.212;2023-05-19T15:56:15;20.00;45.00
19258;DHT22;9763;48.780;9.212;2023-05-19T15:59:40;20.00;45.20
19258;DHT22;9763;48.780;9.212;2023-05-19T16:03:03;20.00;45.40
19258;DHT22;9763;48.780;9.212;2023-05-19T16:06:29;20.00;45.40
19258;DHT22;9763;48.780;9.212;2023-05-19T16:09:52;20.00;45.40
19258;DHT22;9763;48.780;9.212;2023-05-19T16:13:16;20.00;45.40
19258;DHT22;9763;48.780;9.212;2023-05-19T16:16:40;20.00;45.40
19258;DHT22;9763;48.780;9.212;2023-05-19T16:20:06;20.00;45.30
19258;DHT22;9763;48.780;9.212;2023-05-19T16:23:32;20.00;45.40
19258;DHT22;9763;48.780;9.212;2023-05-19T16:26:56;20.10;45.50
19258;DHT22;9763;48.780;9.212;2023-05-19T16:30:19;20.10;45.70
19258;DHT22;9763;48.780;9.212;2023-05-19T16:33:44;20.10;45.70
19258;DHT22;9763;48.780;9.212;2023-05-19T16:37:08;20.20;45.70
19258;DHT22;9763;48.780;9.212;2023-05-19T16:40:33;20.20;45.70
19258;DHT22;9763;48.780;9.212;2023-05-19T16:43:57;20.20;45.60
19258;DHT22;9763;48.780;9.212;2023-05-19T16:47:21;20.20;45.50
19258;DHT22;9763;48.780;9.212;2023-05-19T16:50:46;20.20;45.40
19258;DHT22;9763;48.780;9.212;2023-05-19T16:54:10;20.20;45.60
19258;DHT22;9763;48.780;9.212;2023-05-19T16:57:35;20.20;45.40
19258;DHT22;9763;48.780;9.212;2023-05-19T17:00:59;20.20;45.30
19258;DHT22;9763;48.780;9.212;2023-05-19T17:04:22;20.10;45.30
19258;DHT22;9763;48.780;9.212;2023-05-19T17:07:46;20.20;45.50
19258;DHT22;9763;48.780;9.212;2023-05-19T17:11:09;20.10;45.50
19258;DHT22;9763;48.780;9.212;2023-05-19T17:14:35;20.10;45.50
19258;DHT22;9763;48.780;9.212;2023-05-19T17:17:59;20.10;45.50
19258;DHT22;9763;48.780;9.212;2023-05-19T17:21:23;20.10;45.40
19258;DHT22;9763;48.780;9.212;2023-05-19T17:24:46;20.10;45.40
19258;DHT22;9763;48.780;9.212;2023-05-19T17:28:10;20.00;45.10
19258;DHT22;9763;48.780;9.212;2023-05-19T17:31:35;20.00;45.20
19258;DHT22;9763;48.780;9.212;2023-05-19T17:35:01;20.10;45.30
19258;DHT22;9763;48.780;9.212;2023-05-19T17:38:26;19.90;45.20
19258;DHT22;9763;48.780;9.212;2023-05-19T17:41:49;19.80;45.20
19258;DHT22;9763;48.780;9.212;2023-05-19T17:45:13;19.80;45.30
19258;DHT22;9763;48.780;9.212;2023-05-19T17:48:38;19.70;45.30
19258;DHT22;9763;48.780;9.212;2023-05-19T17:52:02;19.60;45.90
19258;DHT22;9763;48.780;9.212;2023-05-19T17:55:27;19.50;45.40
19258;DHT22;9763;48.780;9.212;2023-05-19T17:58:52;19.50;45.50
19258;DHT22;9763;48.780;9.212;2023-05-19T18:02:17;19.40;45.50
19258;DHT22;9763;48.780;9.212;2023-05-19T18:05:42;19.40;45.70
19258;DHT22;9763;48.780;9.212;2023-05-19T18:09:07;19.30;45.80
19258;DHT22;9763;48.780;9.212;2023-05-19T18:12:34;19.40;45.90
19258;DHT22;9763;48.780;9.212;2023-05-19T18:15:57;19.20;45.70
19258;DHT22;9763;48.780;9.212;2023-05-19T18:19:21;19.20;45.80
19258;DHT22;9763;48.780;9.212;2023-05-19T18:22:46;19.10;45.90
19258;DHT22;9763;48.780;9.212;2023-05-19T18:26:10;19.00;46.00
19258;DHT22;9763;48.780;9.212;2023-05-19T18:29:35;19.00;46.00
19258;DHT22;9763;48.780;9.212;2023-05-19T18:32:58;19.00;46.10
19258;DHT22;9763;48.780;9.212;2023-05-19T18:36:25;18.90;46.20
19258;DHT22;9763;48.780;9.212;2023-05-19T18:39:50;19.00;46.50
19258;DHT22;9763;48.780;9.212;2023-05-19T18:43:14;18.70;46.30
19258;DHT22;9763;48.780;9.212;2023-05-19T18:46:37;18.70;46.50
19258;DHT22;9763;48.780;9.212;2023-05-19T18:50:01;18.60;46.60
19258;DHT22;9763;48.780;9.212;2023-05-19T18:53:25;18.50;46.60
19258;DHT22;9763;48.780;9.212;2023-05-19T18:56:50;18.50;46.80
19258;DHT22;9763;48.780;9.212;2023-05-19T19:00:14;18.40;46.90
19258;DHT22;9763;48.780;9.212;2023-05-19T19:03:39;18.30;47.30
19258;DHT22;9763;48.780;9.212;2023-05-19T19:07:03;18.20;47.20
19258;DHT22;9763;48.780;9.212;2023-05-19T19:10:27;18.10;47.30
19258;DHT22;9763;48.780;9.212;2023-05-19T19:13:55;18.00;47.40
19258;DHT22;9763;48.780;9.212;2023-05-19T19:17:19;17.90;47.50
19258;DHT22;9763;48.780;9.212;2023-05-19T19:20:43;18.00;47.50
19258;DHT22;9763;48.780;9.212;2023-05-19T19:24:06;17.80;47.70
19258;DHT22;9763;48.780;9.212;2023-05-19T19:27:30;17.80;48.00
19258;DHT22;9763;48.780;9.212;2023-05-19T19:30:57;17.80;48.10
19258;DHT22;9763;48.780;9.212;2023-05-19T19:34:21;17.70;48.80
19258;DHT22;9763;48.780;9.212;2023-05-19T19:37:45;17.70;48.30
19258;DHT22;9763;48.780;9.212;2023-05-19T19:41:09;17.80;48.70
19258;DHT22;9763;48.780;9.212;2023-05-19T19:44:32;17.70;48.40
19258;DHT22;9763;48.780;9.212;2023-05-19T19:47:57;17.80;48.70
19258;DHT22;9763;48.780;9.212;2023-05-19T19:51:21;18.10;49.00
19258;DHT22;9763;48.780;9.212;2023-05-19T19:54:45;17.80;48.70
19258;DHT22;9763;48.780;9.212;2023-05-19T19:58:09;17.70;48.60
19258;DHT22;9763;48.780;9.212;2023-05-19T20:01:33;17.80;48.60
19258;DHT22;9763;48.780;9.212;2023-05-19T20:04:59;17.80;48.70
19258;DHT22;9763;48.780;9.212;2023-05-19T20:08:23;17.80;48.90
19258;DHT22;9763;48.780;9.212;2023-05-19T20:11:48;17.80;48.90
19258;DHT22;9763;48.780;9.212;2023-05-19T20:15:12;18.00;49.00
19258;DHT22;9763;48.780;9.212;2023-05-19T20:18:36;17.70;48.90
19258;DHT22;9763;48.780;9.212;2023-05-19T20:22:02;17.70;48.90
19258;DHT22;9763;48.780;9.212;2023-05-19T20:25:26;17.70;49.10
19258;DHT22;9763;48.780;9.212;2023-05-19T20:28:50;17.80;49.00
19258;DHT22;9763;48.780;9.212;2023-05-19T20:32:14;17.80;49.10
19258;DHT22;9763;48.780;9.212;2023-05-19T20:35:37;17.80;49.10
19258;DHT22;9763;48.780;9.212;2023-05-19T20:39:02;17.70;49.10
19258;DHT22;9763;48.780;9.212;2023-05-19T20:42:28;17.70;49.20
19258;DHT22;9763;48.780;9.212;2023-05-19T20:45:52;17.80;49.30
19258;DHT22;9763;48.780;9.212;2023-05-19T20:49:16;17.80;49.30
19258;DHT22;9763;48.780;9.212;2023-05-19T20:52:41;17.80;49.40
19258;DHT22;9763;48.780;9.212;2023-05-19T20:56:06;17.80;49.40
19258;DHT22;9763;48.780;9.212;2023-05-19T20:59:32;17.80;49.40
19258;DHT22;9763;48.780;9.212;2023-05-19T21:02:56;17.80;49.20
19258;DHT22;9763;48.780;9.212;2023-05-19T21:06:20;17.90;49.40
19258;DHT22;9763;48.780;9.212;2023-05-19T21:09:43;17.90;49.50
19258;DHT22;9763;48.780;9.212;2023-05-19T21:13:13;17.90;49.50
19258;DHT22;9763;48.780;9.212;2023-05-19T21:16:36;17.90;49.60
19258;DHT22;9763;48.780;9.212;2023-05-19T21:20:00;17.90;49.60
19258;DHT22;9763;48.780;9.212;2023-05-19T21:23:24;17.90;49.70
19258;DHT22;9763;48.780;9.212;2023-05-19T21:26:48;17.80;49.60
19258;DHT22;9763;48.780;9.212;2023-05-19T21:30:13;17.80;49.60
19258;DHT22;9763;48.780;9.212;2023-05-19T21:33:37;17.80;49.70
19258;DHT22;9763;48.780;9.212;2023-05-19T21:37:01;17.80;49.60
19258;DHT22;9763;48.780;9.212;2023-05-19T21:40:24;17.80;49.70
19258;DHT22;9763;48.780;9.212;2023-05-19T21:43:48;17.80;49.70
19258;DHT22;9763;48.780;9.212;2023-05-19T21:47:14;17.70;49.70
19258;DHT22;9763;48.780;9.212;2023-05-19T21:50:39;17.70;49.70
19258;DHT22;9763;48.780;9.212;2023-05-19T21:54:03;17.70;49.70
19258;DHT22;9763;48.780;9.212;2023-05-19T21:57:26;17.60;49.50